createdAt,value
2018-08-10T00:02:29.004Z,23.80
2018-08-10T00:06:02.232Z,23.80
2018-08-10T00:09:35.497Z,23.70
2018-08-10T00:13:08.780Z,23.60
2018-08-10T00:16:42.029Z,23.60
2018-08-10T00:20:16.141Z,23.60
2018-08-10T00:23:49.409Z,23.50
2018-08-10T00:27:22.670Z,23.50
2018-08-10T00:30:55.953Z,23.50
2018-08-10T00:34:29.194Z,23.60
2018-08-10T00:38:02.449Z,23.60
2018-08-10T00:41:35.840Z,23.60
2018-08-10T00:45:09.762Z,23.60
2018-08-10T00:48:43.030Z,23.60
2018-08-10T00:52:16.290Z,23.60
2018-08-10T00:55:49.548Z,23.50
2018-08-10T00:59:22.897Z,23.50
2018-08-10T01:02:56.150Z,23.40
2018-08-10T01:06:29.394Z,23.40
2018-08-10T01:10:02.661Z,23.40
2018-08-10T01:13:36.017Z,23.50
2018-08-10T01:17:09.182Z,23.50
2018-08-10T01:20:42.422Z,23.50
2018-08-10T01:24:15.666Z,23.50
2018-08-10T01:27:55.092Z,23.50
2018-08-10T01:31:28.341Z,23.50
2018-08-10T01:35:01.582Z,23.50
2018-08-10T01:38:34.838Z,23.50
2018-08-10T01:42:08.141Z,23.40
2018-08-10T01:45:41.401Z,23.40
2018-08-10T01:49:14.648Z,23.30
2018-08-10T01:52:47.903Z,23.20
2018-08-10T01:56:21.157Z,23.20
2018-08-10T01:59:54.425Z,23.20
2018-08-10T02:03:27.682Z,23.10
2018-08-10T02:07:00.924Z,23.10
2018-08-10T02:10:34.174Z,23.00
2018-08-10T02:14:07.468Z,23.00
2018-08-10T02:17:40.773Z,22.90
2018-08-10T02:21:14.018Z,22.80
2018-08-10T02:24:47.293Z,22.80
2018-08-10T02:28:20.544Z,22.80
2018-08-10T02:31:53.802Z,22.80
2018-08-10T02:35:27.046Z,22.70
2018-08-10T02:39:00.306Z,22.70
2018-08-10T02:42:33.559Z,22.60
2018-08-10T02:46:06.794Z,22.60
2018-08-10T02:49:40.053Z,22.60
2018-08-10T02:53:13.345Z,22.50
2018-08-10T02:56:46.586Z,22.50
2018-08-10T03:00:19.853Z,22.50
2018-08-10T03:03:53.213Z,22.50
2018-08-10T03:07:26.461Z,22.50
2018-08-10T03:10:59.729Z,22.50
2018-08-10T03:14:32.977Z,22.40
2018-08-10T03:18:06.703Z,22.40
2018-08-10T03:21:39.948Z,22.30
2018-08-10T03:25:14.246Z,22.30
2018-08-10T03:28:47.501Z,22.20
2018-08-10T03:32:20.753Z,22.10
2018-08-10T03:35:54.117Z,22.10
2018-08-10T03:39:27.360Z,22.10
2018-08-10T03:43:00.617Z,22.00
2018-08-10T03:46:33.860Z,22.00
2018-08-10T03:50:08.573Z,21.90
2018-08-10T03:53:41.814Z,21.80
2018-08-10T03:57:15.045Z,21.60
2018-08-10T04:00:48.306Z,21.60
2018-08-10T04:04:21.542Z,21.50
2018-08-10T04:07:54.789Z,21.40
2018-08-10T04:11:28.016Z,21.30
2018-08-10T04:15:01.254Z,21.20
2018-08-10T04:18:34.568Z,21.10
2018-08-10T04:22:08.081Z,21.00
2018-08-10T04:25:41.328Z,21.00
2018-08-10T04:29:14.569Z,20.90
2018-08-10T04:32:47.831Z,20.80
2018-08-10T04:36:21.099Z,20.60
2018-08-10T04:39:54.328Z,20.60
2018-08-10T04:43:27.584Z,20.50
2018-08-10T04:47:00.818Z,20.50
2018-08-10T04:50:34.224Z,20.40
2018-08-10T04:54:07.494Z,20.30
2018-08-10T04:57:41.092Z,20.20
2018-08-10T05:01:14.343Z,20.10
2018-08-10T05:04:47.609Z,20.10
2018-08-10T05:08:20.858Z,20.10
2018-08-10T05:11:54.124Z,20.10
2018-08-10T05:15:27.401Z,20.10
2018-08-10T05:19:00.620Z,20.00
2018-08-10T05:22:33.912Z,20.00
2018-08-10T05:26:07.213Z,20.10
2018-08-10T05:29:40.438Z,20.10
2018-08-10T05:33:13.687Z,20.10
2018-08-10T05:36:46.961Z,20.10
2018-08-10T05:40:20.281Z,20.10
2018-08-10T05:43:53.559Z,20.00
2018-08-10T05:47:26.770Z,20.00
2018-08-10T05:51:00.084Z,20.10
2018-08-10T05:54:34.116Z,20.10
2018-08-10T05:58:07.582Z,20.30
2018-08-10T06:01:40.832Z,20.50
2018-08-10T06:05:14.064Z,20.80
2018-08-10T06:08:47.320Z,20.80
2018-08-10T06:12:20.561Z,20.70
2018-08-10T06:15:53.886Z,20.60
2018-08-10T06:19:27.183Z,20.60
2018-08-10T06:23:00.457Z,20.60
2018-08-10T06:26:34.028Z,20.50
2018-08-10T06:30:09.489Z,20.50
2018-08-10T06:33:42.804Z,20.60
2018-08-10T06:37:16.012Z,20.60
2018-08-10T06:40:49.244Z,20.60
2018-08-10T06:44:22.482Z,20.60
2018-08-10T06:47:55.725Z,20.40
2018-08-10T06:51:28.949Z,20.30
2018-08-10T06:55:02.508Z,20.30
2018-08-10T06:58:35.940Z,20.30
2018-08-10T07:02:09.166Z,20.30
2018-08-10T07:05:42.421Z,20.20
2018-08-10T07:09:15.657Z,20.20
2018-08-10T07:12:48.920Z,20.10
2018-08-10T07:16:22.156Z,20.10
2018-08-10T07:19:55.384Z,20.10
2018-08-10T07:23:28.606Z,20.10
2018-08-10T07:27:01.885Z,20.10
2018-08-10T07:30:35.133Z,20.20
2018-08-10T07:34:09.339Z,20.10
2018-08-10T07:37:42.581Z,20.10
2018-08-10T07:41:15.813Z,20.10
2018-08-10T07:44:49.058Z,20.10
2018-08-10T07:48:22.290Z,20.20
2018-08-10T07:51:55.535Z,20.20
2018-08-10T07:55:28.788Z,20.20
2018-08-10T07:59:02.097Z,20.30
2018-08-10T08:02:35.399Z,20.40
2018-08-10T08:06:08.712Z,20.40
2018-08-10T08:09:41.964Z,20.40
2018-08-10T08:13:15.160Z,20.50
2018-08-10T08:16:48.420Z,20.50
2018-08-10T08:20:21.660Z,20.50
2018-08-10T08:23:54.892Z,20.60
2018-08-10T08:27:28.135Z,20.80
2018-08-10T08:31:02.221Z,20.80
2018-08-10T08:34:35.503Z,20.80
2018-08-10T08:38:20.099Z,20.80
2018-08-10T08:41:53.356Z,20.70
2018-08-10T08:45:53.492Z,20.70
2018-08-10T08:49:26.593Z,20.80
2018-08-10T08:52:59.907Z,20.90
2018-08-10T08:56:41.008Z,21.10
2018-08-10T09:00:14.930Z,21.20
2018-08-10T09:05:00.726Z,21.30
2018-08-10T09:08:33.970Z,21.40
2018-08-10T09:12:07.221Z,21.80
2018-08-10T09:15:40.487Z,22.00
2018-08-10T09:19:13.717Z,22.10
2018-08-10T09:22:46.965Z,22.00
2018-08-10T09:26:20.245Z,22.10
2018-08-10T09:29:53.437Z,22.10
2018-08-10T09:33:26.693Z,22.10
2018-08-10T09:37:00.339Z,22.20
2018-08-10T09:40:33.570Z,22.40
2018-08-10T09:44:06.861Z,22.50
2018-08-10T09:47:40.356Z,22.80
2018-08-10T09:51:13.581Z,23.00
2018-08-10T09:55:30.435Z,23.20
2018-08-10T09:59:03.781Z,23.50
2018-08-10T10:02:37.101Z,23.80
2018-08-10T10:06:10.336Z,24.00
2018-08-10T10:09:43.594Z,24.00
2018-08-10T10:13:16.864Z,24.10
2018-08-10T10:16:50.120Z,24.30
2018-08-10T10:20:23.361Z,24.40
2018-08-10T10:23:56.612Z,24.60
2018-08-10T10:27:29.851Z,24.70
2018-08-10T10:31:03.112Z,24.70
2018-08-10T10:34:36.365Z,24.60
2018-08-10T10:38:09.628Z,24.50
2018-08-10T10:41:42.853Z,24.50
2018-08-10T10:45:16.456Z,24.80
2018-08-10T10:48:49.697Z,25.00
2018-08-10T10:52:22.941Z,25.20
2018-08-10T10:55:56.277Z,25.40
2018-08-10T10:59:29.518Z,25.50
2018-08-10T11:03:02.773Z,25.70
2018-08-10T11:06:36.009Z,25.70
2018-08-10T11:10:10.917Z,25.70
2018-08-10T11:13:44.149Z,25.60
2018-08-10T11:17:17.396Z,25.40
2018-08-10T11:20:50.633Z,25.40
2018-08-10T11:24:23.887Z,25.20
2018-08-10T11:27:57.135Z,25.00
2018-08-10T11:31:30.368Z,24.80
2018-08-10T11:35:03.904Z,24.70
2018-08-10T11:38:37.194Z,24.70
2018-08-10T11:42:10.432Z,24.70
2018-08-10T11:45:43.708Z,24.70
2018-08-10T11:49:16.932Z,24.60
2018-08-10T11:52:50.163Z,24.40
2018-08-10T11:56:23.419Z,24.40
2018-08-10T11:59:56.701Z,24.40
2018-08-10T12:03:29.914Z,24.40
2018-08-10T12:07:03.169Z,24.50
2018-08-10T12:10:36.409Z,24.70
2018-08-10T12:14:10.112Z,24.70
2018-08-10T12:17:43.383Z,24.60
2018-08-10T12:21:16.613Z,24.50
2018-08-10T12:24:49.985Z,24.40
2018-08-10T12:28:23.164Z,24.50
2018-08-10T12:31:56.422Z,24.80
2018-08-10T12:35:29.673Z,25.10
2018-08-10T12:39:02.938Z,25.40
2018-08-10T12:42:36.200Z,25.50
2018-08-10T12:46:09.453Z,25.60
2018-08-10T12:49:42.693Z,25.50
2018-08-10T12:53:15.943Z,25.70
2018-08-10T12:56:49.173Z,25.70
2018-08-10T13:00:22.405Z,25.50
2018-08-10T13:03:55.641Z,25.50
2018-08-10T13:07:28.880Z,25.60
2018-08-10T13:11:02.117Z,25.70
2018-08-10T13:14:35.389Z,25.80
2018-08-10T13:18:08.614Z,25.90
2018-08-10T13:21:41.876Z,26.10
2018-08-10T13:25:15.118Z,26.00
2018-08-10T13:28:48.350Z,25.90
2018-08-10T13:32:21.612Z,25.90
2018-08-10T13:35:54.876Z,26.00
2018-08-10T13:39:28.102Z,26.00
2018-08-10T13:43:01.341Z,26.00
2018-08-10T13:46:35.078Z,26.00
2018-08-10T13:50:10.384Z,25.90
2018-08-10T13:53:43.669Z,25.90
2018-08-10T13:57:16.909Z,25.70
2018-08-10T14:00:50.146Z,25.70
2018-08-10T14:04:23.458Z,26.00
2018-08-10T14:07:56.764Z,26.30
2018-08-10T14:11:30.006Z,26.60
2018-08-10T14:15:03.289Z,26.80
2018-08-10T14:18:36.553Z,26.80
2018-08-10T14:22:09.803Z,26.70
2018-08-10T14:25:43.074Z,26.70
2018-08-10T14:29:16.339Z,26.50
2018-08-10T14:32:49.607Z,26.50
2018-08-10T14:36:22.840Z,26.40
2018-08-10T14:39:56.077Z,26.40
2018-08-10T14:43:29.308Z,26.50
2018-08-10T14:47:02.660Z,26.80
2018-08-10T14:50:35.840Z,27.20
2018-08-10T14:54:09.096Z,27.50
2018-08-10T14:57:42.362Z,27.80
2018-08-10T15:01:15.601Z,27.80
2018-08-10T15:04:49.872Z,27.50
2018-08-10T15:08:23.108Z,27.30
2018-08-10T15:11:56.496Z,27.20
2018-08-10T15:15:29.672Z,27.10
2018-08-10T15:19:02.966Z,26.80
2018-08-10T15:22:36.270Z,26.50
2018-08-10T15:26:09.517Z,26.20
2018-08-10T15:29:42.825Z,25.90
2018-08-10T15:33:16.106Z,25.70
2018-08-10T15:36:49.466Z,25.60
2018-08-10T15:40:22.726Z,25.90
2018-08-10T15:43:55.975Z,26.60
2018-08-10T15:47:29.277Z,27.30
2018-08-10T15:51:02.532Z,27.50
2018-08-10T15:54:35.791Z,27.40
2018-08-10T15:58:09.064Z,27.30
2018-08-10T16:01:42.317Z,27.60
2018-08-10T16:05:15.566Z,27.90
2018-08-10T16:08:48.817Z,28.30
2018-08-10T16:12:22.037Z,28.70
2018-08-10T16:15:55.318Z,28.90
2018-08-10T16:19:28.571Z,28.90
2018-08-10T16:23:01.832Z,29.10
2018-08-10T16:26:35.069Z,29.10
2018-08-10T16:30:09.948Z,29.10
2018-08-10T16:33:43.189Z,28.80
2018-08-10T16:37:16.446Z,28.50
2018-08-10T16:40:49.677Z,28.10
2018-08-10T16:44:22.960Z,27.70
2018-08-10T16:47:56.201Z,27.20
2018-08-10T16:51:29.468Z,26.80
2018-08-10T16:55:03.116Z,26.60
2018-08-10T16:58:36.381Z,26.40
2018-08-10T17:02:10.298Z,26.10
2018-08-10T17:05:43.821Z,25.90
2018-08-10T17:09:17.090Z,25.70
2018-08-10T17:12:50.349Z,25.60
2018-08-10T17:16:24.002Z,25.50
2018-08-10T17:19:57.236Z,25.30
2018-08-10T17:23:30.487Z,25.20
2018-08-10T17:27:03.773Z,25.20
2018-08-10T17:30:37.053Z,25.20
2018-08-10T17:34:10.312Z,25.20
2018-08-10T17:37:44.809Z,25.10
2018-08-10T17:41:18.052Z,25.10
2018-08-10T17:44:51.320Z,25.00
2018-08-10T17:48:24.561Z,25.00
2018-08-10T17:51:57.810Z,25.00
2018-08-10T17:55:31.072Z,25.00
2018-08-10T17:59:04.458Z,25.00
2018-08-10T18:02:37.683Z,25.10
2018-08-10T18:06:10.934Z,25.10
2018-08-10T18:09:44.209Z,25.10
2018-08-10T18:13:17.448Z,25.00
2018-08-10T18:16:50.717Z,25.00
2018-08-10T18:20:23.965Z,24.90
2018-08-10T18:23:57.217Z,24.90
2018-08-10T18:27:30.542Z,24.90
2018-08-10T18:31:03.818Z,24.90
2018-08-10T18:34:37.091Z,24.90
2018-08-10T18:38:10.323Z,24.80
2018-08-10T18:41:43.580Z,24.80
2018-08-10T18:45:18.485Z,24.60
2018-08-10T18:48:51.764Z,24.60
2018-08-10T18:52:25.007Z,24.60
2018-08-10T18:55:58.272Z,24.60
2018-08-10T18:59:31.590Z,24.60
2018-08-10T19:03:04.929Z,24.60
2018-08-10T19:06:38.350Z,24.60
2018-08-10T19:10:13.337Z,24.70
2018-08-10T19:13:46.636Z,24.70
2018-08-10T19:17:19.901Z,24.70
2018-08-10T19:20:53.141Z,24.70
2018-08-10T19:24:26.429Z,24.70
2018-08-10T19:27:59.659Z,24.70
2018-08-10T19:31:33.744Z,24.70
2018-08-10T19:35:07.138Z,24.70
2018-08-10T19:38:40.377Z,24.70
2018-08-10T19:42:13.652Z,24.60
2018-08-10T19:45:46.896Z,24.50
2018-08-10T19:49:20.151Z,24.40
2018-08-10T19:52:53.758Z,24.20
2018-08-10T19:56:27.025Z,24.10
2018-08-10T20:00:00.288Z,24.00
2018-08-10T20:03:33.589Z,23.90
2018-08-10T20:07:07.159Z,23.70
2018-08-10T20:10:40.395Z,23.60
2018-08-10T20:14:13.669Z,23.40
2018-08-10T20:17:46.962Z,23.30
2018-08-10T20:21:20.235Z,23.20
2018-08-10T20:24:53.488Z,23.10
2018-08-10T20:28:26.864Z,23.00
2018-08-10T20:32:00.078Z,22.90
2018-08-10T20:35:33.327Z,22.80
2018-08-10T20:39:09.124Z,22.70
2018-08-10T20:42:43.713Z,22.70
2018-08-10T20:46:17.526Z,22.60
2018-08-10T20:49:50.814Z,22.50
2018-08-10T20:53:24.516Z,22.40
2018-08-10T20:56:58.102Z,22.40
2018-08-10T21:00:32.493Z,22.30
2018-08-10T21:04:05.834Z,22.20
2018-08-10T21:07:39.211Z,22.20
2018-08-10T21:11:12.668Z,22.10
2018-08-10T21:14:46.009Z,22.10
2018-08-10T21:18:19.269Z,22.10
2018-08-10T21:21:52.541Z,22.10
2018-08-10T21:25:25.801Z,22.10
2018-08-10T21:28:59.217Z,22.00
2018-08-10T21:32:32.448Z,22.00
2018-08-10T21:36:05.858Z,22.00
2018-08-10T21:39:39.112Z,22.00
2018-08-10T21:43:12.348Z,21.90
2018-08-10T21:46:45.598Z,21.80
2018-08-10T21:50:18.830Z,21.70
2018-08-10T21:53:52.088Z,21.60
2018-08-10T21:57:25.337Z,21.60
2018-08-10T22:01:01.526Z,21.50
2018-08-10T22:04:34.869Z,21.40
2018-08-10T22:08:08.114Z,21.30
2018-08-10T22:11:41.376Z,21.30
2018-08-10T22:15:20.152Z,21.20
2018-08-10T22:19:15.419Z,21.20
2018-08-10T22:22:48.679Z,21.10
2018-08-10T22:26:21.954Z,21.00
2018-08-10T22:29:55.212Z,21.00
2018-08-10T22:33:28.437Z,20.90
2018-08-10T22:37:01.684Z,20.80
2018-08-10T22:40:35.098Z,20.80
2018-08-10T22:44:08.405Z,20.70
2018-08-10T22:47:41.653Z,20.60
2018-08-10T22:51:14.869Z,20.60
2018-08-10T22:54:48.118Z,20.60
2018-08-10T22:58:21.362Z,20.50
2018-08-10T23:01:54.656Z,20.50
2018-08-10T23:05:27.887Z,20.40
2018-08-10T23:09:01.150Z,20.40
2018-08-10T23:12:34.553Z,20.40
2018-08-10T23:16:07.812Z,20.30
2018-08-10T23:19:41.048Z,20.30
2018-08-10T23:23:14.300Z,20.30
2018-08-10T23:26:47.533Z,20.20
2018-08-10T23:30:20.803Z,20.10
2018-08-10T23:33:54.042Z,20.10
2018-08-10T23:37:27.300Z,20.10
2018-08-10T23:41:00.544Z,20.00
2018-08-10T23:44:33.805Z,20.00
2018-08-10T23:48:07.048Z,19.90
2018-08-10T23:51:40.305Z,19.90
2018-08-10T23:55:15.253Z,19.90
2018-08-10T23:58:48.593Z,19.90
